sensor_id;sensor_type;location;lat;lon;timestamp;temperature;humidity
16485;DHT22;8353;47.856;12.344;2023-03-12T00:02:13;6.00;99.90
16485;DHT22;8353;47.856;12.344;2023-03-12T00:04:44;6.00;99.90
16485;DHT22;8353;47.856;12.344;2023-03-12T00:07:14;6.00;99.90
16485;DHT22;8353;47.856;12.344;2023-03-12T00:09:45;6.00;99.90
16485;DHT22;8353;47.856;12.344;2023-03-12T00:12:17;6.00;99.90
16485;DHT22;8353;47.856;12.344;2023-03-12T00:14:48;6.00;99.90
16485;DHT22;8353;47.856;12.344;2023-03-12T00:17:18;6.00;99.90
16485;DHT22;8353;47.856;12.344;2023-03-12T00:19:50;6.00;99.90
16485;DHT22;8353;47.856;12.344;2023-03-12T00:22:21;6.00;99.90
16485;DHT22;8353;47.856;12.344;2023-03-12T00:24:51;6.00;99.90
16485;DHT22;8353;47.856;12.344;2023-03-12T00:27:25;5.90;99.90
16485;DHT22;8353;47.856;12.344;2023-03-12T00:29:55;5.90;99.90
16485;DHT22;8353;47.856;12.344;2023-03-12T00:32:26;5.90;99.90
16485;DHT22;8353;47.856;12.344;2023-03-12T00:34:56;5.90;99.90
16485;DHT22;8353;47.856;12.344;2023-03-12T00:37:27;5.90;99.90
16485;DHT22;8353;47.856;12.344;2023-03-12T00:39:57;5.90;99.90
16485;DHT22;8353;47.856;12.344;2023-03-12T00:42:31;5.80;99.90
16485;DHT22;8353;47.856;12.344;2023-03-12T00:45:02;5.70;99.90
16485;DHT22;8353;47.856;12.344;2023-03-12T00:47:32;5.70;99.90
16485;DHT22;8353;47.856;12.344;2023-03-12T00:50:04;5.70;99.90
16485;DHT22;8353;47.856;12.344;2023-03-12T00:52:35;5.70;99.90
16485;DHT22;8353;47.856;12.344;2023-03-12T00:55:06;5.70;99.90
16485;DHT22;8353;47.856;12.344;2023-03-12T00:57:39;5.70;99.90
16485;DHT22;8353;47.856;12.344;2023-03-12T01:00:12;5.70;99.90
16485;DHT22;8353;47.856;12.344;2023-03-12T01:02:43;5.70;99.90
16485;DHT22;8353;47.856;12.344;2023-03-12T01:05:13;5.60;99.90
16485;DHT22;8353;47.856;12.344;2023-03-12T01:07:44;5.60;99.90
16485;DHT22;8353;47.856;12.344;2023-03-12T01:10:16;5.60;99.90
16485;DHT22;8353;47.856;12.344;2023-03-12T01:12:49;5.60;99.90
16485;DHT22;8353;47.856;12.344;2023-03-12T01:15:19;5.50;99.90
16485;DHT22;8353;47.856;12.344;2023-03-12T01:17:50;5.50;99.90
16485;DHT22;8353;47.856;12.344;2023-03-12T01:20:21;5.50;99.90
16485;DHT22;8353;47.856;12.344;2023-03-12T01:22:53;5.50;99.90
16485;DHT22;8353;47.856;12.344;2023-03-12T01:25:23;5.50;99.90
16485;DHT22;8353;47.856;12.344;2023-03-12T01:27:55;5.40;99.90
16485;DHT22;8353;47.856;12.344;2023-03-12T01:30:27;5.40;99.90
16485;DHT22;8353;47.856;12.344;2023-03-12T01:32:58;5.40;99.90
16485;DHT22;8353;47.856;12.344;2023-03-12T01:35:28;5.40;99.90
16485;DHT22;8353;47.856;12.344;2023-03-12T01:37:59;5.30;99.90
16485;DHT22;8353;47.856;12.344;2023-03-12T01:40:32;5.30;99.90
16485;DHT22;8353;47.856;12.344;2023-03-12T01:43:27;5.20;99.90
16485;DHT22;8353;47.856;12.344;2023-03-12T01:46:08;5.20;99.90
16485;DHT22;8353;47.856;12.344;2023-03-12T01:48:49;5.20;99.90
16485;DHT22;8353;47.856;12.344;2023-03-12T01:51:21;5.20;99.90
16485;DHT22;8353;47.856;12.344;2023-03-12T01:53:57;5.20;99.90
16485;DHT22;8353;47.856;12.344;2023-03-12T01:56:32;5.10;99.90
16485;DHT22;8353;47.856;12.344;2023-03-12T01:59:08;5.20;99.90
16485;DHT22;8353;47.856;12.344;2023-03-12T02:01:41;5.10;99.90
16485;DHT22;8353;47.856;12.344;2023-03-12T02:04:13;5.10;99.90
16485;DHT22;8353;47.856;12.344;2023-03-12T02:06:47;5.10;99.90
16485;DHT22;8353;47.856;12.344;2023-03-12T02:09:20;5.10;99.90
16485;DHT22;8353;47.856;12.344;2023-03-12T02:11:51;5.00;99.90
16485;DHT22;8353;47.856;12.344;2023-03-12T02:14:23;5.10;99.90
16485;DHT22;8353;47.856;12.344;2023-03-12T02:16:54;5.00;99.90
16485;DHT22;8353;47.856;12.344;2023-03-12T02:19:45;4.90;99.90
16485;DHT22;8353;47.856;12.344;2023-03-12T02:22:19;4.80;99.90
16485;DHT22;8353;47.856;12.344;2023-03-12T02:24:54;4.60;99.90
16485;DHT22;8353;47.856;12.344;2023-03-12T02:27:29;4.70;99.90
16485;DHT22;8353;47.856;12.344;2023-03-12T02:30:01;4.80;99.90
16485;DHT22;8353;47.856;12.344;2023-03-12T02:32:37;4.90;99.90
16485;DHT22;8353;47.856;12.344;2023-03-12T02:35:08;4.80;99.90
16485;DHT22;8353;47.856;12.344;2023-03-12T02:37:46;4.80;99.90
16485;DHT22;8353;47.856;12.344;2023-03-12T02:40:21;4.80;99.90
16485;DHT22;8353;47.856;12.344;2023-03-12T02:42:53;4.80;99.90
16485;DHT22;8353;47.856;12.344;2023-03-12T02:45:25;4.80;99.90
16485;DHT22;8353;47.856;12.344;2023-03-12T02:47:55;4.80;99.90
16485;DHT22;8353;47.856;12.344;2023-03-12T02:50:26;4.80;99.90
16485;DHT22;8353;47.856;12.344;2023-03-12T02:52:57;4.80;99.90
16485;DHT22;8353;47.856;12.344;2023-03-12T02:55:28;4.80;99.90
16485;DHT22;8353;47.856;12.344;2023-03-12T02:58:00;4.80;99.90
16485;DHT22;8353;47.856;12.344;2023-03-12T03:00:32;4.80;99.90
16485;DHT22;8353;47.856;12.344;2023-03-12T03:03:02;4.80;99.90
16485;DHT22;8353;47.856;12.344;2023-03-12T03:05:33;4.80;99.90
16485;DHT22;8353;47.856;12.344;2023-03-12T03:08:06;4.80;99.90
16485;DHT22;8353;47.856;12.344;2023-03-12T03:10:36;4.80;99.90
16485;DHT22;8353;47.856;12.344;2023-03-12T03:13:08;4.80;99.90
16485;DHT22;8353;47.856;12.344;2023-03-12T03:15:39;4.90;99.90
16485;DHT22;8353;47.856;12.344;2023-03-12T03:18:09;4.90;99.90
16485;DHT22;8353;47.856;12.344;2023-03-12T03:20:40;4.90;99.90
16485;DHT22;8353;47.856;12.344;2023-03-12T03:23:12;4.90;99.90
16485;DHT22;8353;47.856;12.344;2023-03-12T03:25:42;4.90;99.90
16485;DHT22;8353;47.856;12.344;2023-03-12T03:28:14;4.90;99.90
16485;DHT22;8353;47.856;12.344;2023-03-12T03:30:45;4.80;99.90
16485;DHT22;8353;47.856;12.344;2023-03-12T03:33:16;4.80;99.90
16485;DHT22;8353;47.856;12.344;2023-03-12T03:35:47;4.90;99.90
16485;DHT22;8353;47.856;12.344;2023-03-12T03:38:18;4.90;99.90
16485;DHT22;8353;47.856;12.344;2023-03-12T03:40:48;4.90;99.90
16485;DHT22;8353;47.856;12.344;2023-03-12T03:43:20;4.90;99.90
16485;DHT22;8353;47.856;12.344;2023-03-12T03:45:56;5.00;99.90
16485;DHT22;8353;47.856;12.344;2023-03-12T03:48:26;5.00;99.90
16485;DHT22;8353;47.856;12.344;2023-03-12T03:50:59;5.10;99.90
16485;DHT22;8353;47.856;12.344;2023-03-12T03:53:30;5.10;99.90
16485;DHT22;8353;47.856;12.344;2023-03-12T03:56:04;5.10;99.90
16485;DHT22;8353;47.856;12.344;2023-03-12T03:58:38;5.10;99.90
16485;DHT22;8353;47.856;12.344;2023-03-12T04:01:08;5.10;99.90
16485;DHT22;8353;47.856;12.344;2023-03-12T04:03:39;5.10;99.90
16485;DHT22;8353;47.856;12.344;2023-03-12T04:06:10;5.10;99.90
16485;DHT22;8353;47.856;12.344;2023-03-12T04:08:41;5.10;99.90
16485;DHT22;8353;47.856;12.344;2023-03-12T04:11:12;5.10;99.90
16485;DHT22;8353;47.856;12.344;2023-03-12T04:13:45;5.10;99.90
16485;DHT22;8353;47.856;12.344;2023-03-12T04:16:16;5.10;99.90
16485;DHT22;8353;47.856;12.344;2023-03-12T04:18:47;5.10;99.90
16485;DHT22;8353;47.856;12.344;2023-03-12T04:21:17;5.10;99.90
16485;DHT22;8353;47.856;12.344;2023-03-12T04:23:48;5.10;99.90
16485;DHT22;8353;47.856;12.344;2023-03-12T04:26:18;5.10;99.90
16485;DHT22;8353;47.856;12.344;2023-03-12T04:28:50;5.10;99.90
16485;DHT22;8353;47.856;12.344;2023-03-12T04:31:21;5.10;99.90
16485;DHT22;8353;47.856;12.344;2023-03-12T04:33:52;5.10;99.90
16485;DHT22;8353;47.856;12.344;2023-03-12T04:36:23;5.10;99.90
16485;DHT22;8353;47.856;12.344;2023-03-12T04:38:55;5.10;99.90
16485;DHT22;8353;47.856;12.344;2023-03-12T04:41:26;5.20;99.90
16485;DHT22;8353;47.856;12.344;2023-03-12T04:43:57;5.20;99.90
16485;DHT22;8353;47.856;12.344;2023-03-12T04:46:28;5.10;99.90
16485;DHT22;8353;47.856;12.344;2023-03-12T04:48:58;5.10;99.90
16485;DHT22;8353;47.856;12.344;2023-03-12T04:51:31;5.10;99.90
16485;DHT22;8353;47.856;12.344;2023-03-12T04:54:02;5.00;99.90
16485;DHT22;8353;47.856;12.344;2023-03-12T04:56:32;4.90;99.90
16485;DHT22;8353;47.856;12.344;2023-03-12T04:59:04;4.90;99.90
16485;DHT22;8353;47.856;12.344;2023-03-12T05:01:35;4.80;99.90
16485;DHT22;8353;47.856;12.344;2023-03-12T05:04:06;4.80;99.90
16485;DHT22;8353;47.856;12.344;2023-03-12T05:06:37;4.90;99.90
16485;DHT22;8353;47.856;12.344;2023-03-12T05:09:08;4.80;99.90
16485;DHT22;8353;47.856;12.344;2023-03-12T05:11:39;4.90;99.90
16485;DHT22;8353;47.856;12.344;2023-03-12T05:14:11;4.80;99.90
16485;DHT22;8353;47.856;12.344;2023-03-12T05:16:42;4.90;99.90
16485;DHT22;8353;47.856;12.344;2023-03-12T05:19:13;5.00;99.90
16485;DHT22;8353;47.856;12.344;2023-03-12T05:21:43;5.10;99.90
16485;DHT22;8353;47.856;12.344;2023-03-12T05:24:14;5.10;99.90
16485;DHT22;8353;47.856;12.344;2023-03-12T05:26:45;5.20;99.90
16485;DHT22;8353;47.856;12.344;2023-03-12T05:29:17;5.30;99.90
16485;DHT22;8353;47.856;12.344;2023-03-12T05:31:47;5.30;99.90
16485;DHT22;8353;47.856;12.344;2023-03-12T05:34:18;5.40;99.90
16485;DHT22;8353;47.856;12.344;2023-03-12T05:36:48;5.30;99.90
16485;DHT22;8353;47.856;12.344;2023-03-12T05:39:18;5.30;99.90
16485;DHT22;8353;47.856;12.344;2023-03-12T05:41:49;5.40;99.90
16485;DHT22;8353;47.856;12.344;2023-03-12T05:44:24;5.40;99.90
16485;DHT22;8353;47.856;12.344;2023-03-12T05:46:55;5.30;99.90
16485;DHT22;8353;47.856;12.344;2023-03-12T05:49:25;5.30;99.90
16485;DHT22;8353;47.856;12.344;2023-03-12T05:51:56;5.10;99.90
16485;DHT22;8353;47.856;12.344;2023-03-12T05:54:27;5.10;99.90
16485;DHT22;8353;47.856;12.344;2023-03-12T05:56:58;5.10;99.90
16485;DHT22;8353;47.856;12.344;2023-03-12T05:59:30;5.10;99.90
16485;DHT22;8353;47.856;12.344;2023-03-12T06:02:00;5.10;99.90
16485;DHT22;8353;47.856;12.344;2023-03-12T06:04:31;5.20;99.90
16485;DHT22;8353;47.856;12.344;2023-03-12T06:07:01;5.10;99.90
16485;DHT22;8353;47.856;12.344;2023-03-12T06:09:32;5.10;99.90
16485;DHT22;8353;47.856;12.344;2023-03-12T06:12:02;5.20;99.90
16485;DHT22;8353;47.856;12.344;2023-03-12T06:14:34;5.30;99.90
16485;DHT22;8353;47.856;12.344;2023-03-12T06:17:05;5.40;99.90
16485;DHT22;8353;47.856;12.344;2023-03-12T06:19:35;5.50;99.90
16485;DHT22;8353;47.856;12.344;2023-03-12T06:22:05;5.60;99.90
16485;DHT22;8353;47.856;12.344;2023-03-12T06:24:35;5.60;99.90
16485;DHT22;8353;47.856;12.344;2023-03-12T06:27:06;5.70;99.90
16485;DHT22;8353;47.856;12.344;2023-03-12T06:29:38;5.70;99.90
16485;DHT22;8353;47.856;12.344;2023-03-12T06:32:09;5.80;99.90
16485;DHT22;8353;47.856;12.344;2023-03-12T06:34:39;5.90;99.90
16485;DHT22;8353;47.856;12.344;2023-03-12T06:37:10;5.80;99.90
16485;DHT22;8353;47.856;12.344;2023-03-12T06:39:41;5.70;99.90
16485;DHT22;8353;47.856;12.344;2023-03-12T06:42:11;5.80;99.90
16485;DHT22;8353;47.856;12.344;2023-03-12T06:44:44;5.70;99.90
16485;DHT22;8353;47.856;12.344;2023-03-12T06:47:14;5.80;99.90
16485;DHT22;8353;47.856;12.344;2023-03-12T06:49:44;5.80;99.90
16485;DHT22;8353;47.856;12.344;2023-03-12T06:52:15;5.70;99.90
16485;DHT22;8353;47.856;12.344;2023-03-12T06:54:45;5.60;99.90
16485;DHT22;8353;47.856;12.344;2023-03-12T06:57:16;5.50;99.90
16485;DHT22;8353;47.856;12.344;2023-03-12T06:59:48;5.60;99.90
16485;DHT22;8353;47.856;12.344;2023-03-12T07:02:20;5.70;99.90
16485;DHT22;8353;47.856;12.344;2023-03-12T07:04:51;5.60;99.90
16485;DHT22;8353;47.856;12.344;2023-03-12T07:07:21;5.40;99.90
16485;DHT22;8353;47.856;12.344;2023-03-12T07:09:51;5.40;99.90
16485;DHT22;8353;47.856;12.344;2023-03-12T07:12:23;5.40;99.90
16485;DHT22;8353;47.856;12.344;2023-03-12T07:14:54;5.50;99.90
16485;DHT22;8353;47.856;12.344;2023-03-12T07:17:25;5.60;99.90
16485;DHT22;8353;47.856;12.344;2023-03-12T07:19:55;5.70;99.90
16485;DHT22;8353;47.856;12.344;2023-03-12T07:22:26;5.70;99.90
16485;DHT22;8353;47.856;12.344;2023-03-12T07:24:57;5.70;99.90
16485;DHT22;8353;47.856;12.344;2023-03-12T07:27:27;5.60;99.90
16485;DHT22;8353;47.856;12.344;2023-03-12T07:29:59;5.70;99.90
16485;DHT22;8353;47.856;12.344;2023-03-12T07:32:30;5.70;99.90
16485;DHT22;8353;47.856;12.344;2023-03-12T07:35:01;5.70;99.90
16485;DHT22;8353;47.856;12.344;2023-03-12T07:37:32;5.60;99.90
16485;DHT22;8353;47.856;12.344;2023-03-12T07:40:03;5.60;99.90
16485;DHT22;8353;47.856;12.344;2023-03-12T07:42:35;5.60;99.90
16485;DHT22;8353;47.856;12.344;2023-03-12T07:45:07;5.70;99.90
16485;DHT22;8353;47.856;12.344;2023-03-12T07:47:38;5.60;99.90
16485;DHT22;8353;47.856;12.344;2023-03-12T07:50:10;5.70;99.90
16485;DHT22;8353;47.856;12.344;2023-03-12T07:52:41;5.70;99.90
16485;DHT22;8353;47.856;12.344;2023-03-12T07:55:12;5.80;99.90
16485;DHT22;8353;47.856;12.344;2023-03-12T07:57:42;5.70;99.90
16485;DHT22;8353;47.856;12.344;2023-03-12T08:00:15;5.70;99.90
16485;DHT22;8353;47.856;12.344;2023-03-12T08:02:46;5.70;99.90
16485;DHT22;8353;47.856;12.344;2023-03-12T08:05:17;5.70;99.90
16485;DHT22;8353;47.856;12.344;2023-03-12T08:07:47;5.80;99.90
16485;DHT22;8353;47.856;12.344;2023-03-12T08:10:19;5.90;99.90
16485;DHT22;8353;47.856;12.344;2023-03-12T08:12:49;5.90;99.90
16485;DHT22;8353;47.856;12.344;2023-03-12T08:15:24;5.90;99.90
16485;DHT22;8353;47.856;12.344;2023-03-12T08:17:55;6.00;99.90
16485;DHT22;8353;47.856;12.344;2023-03-12T08:20:26;6.00;99.90
16485;DHT22;8353;47.856;12.344;2023-03-12T08:22:56;6.10;99.90
16485;DHT22;8353;47.856;12.344;2023-03-12T08:25:27;6.20;99.90
16485;DHT22;8353;47.856;12.344;2023-03-12T08:27:58;6.20;99.90
16485;DHT22;8353;47.856;12.344;2023-03-12T08:30:30;6.20;99.90
16485;DHT22;8353;47.856;12.344;2023-03-12T08:33:03;6.10;99.90
16485;DHT22;8353;47.856;12.344;2023-03-12T08:35:34;6.10;99.90
16485;DHT22;8353;47.856;12.344;2023-03-12T08:38:05;6.20;99.90
16485;DHT22;8353;47.856;12.344;2023-03-12T08:40:36;6.20;99.90
16485;DHT22;8353;47.856;12.344;2023-03-12T08:43:06;6.30;99.90
16485;DHT22;8353;47.856;12.344;2023-03-12T08:45:38;6.30;99.90
16485;DHT22;8353;47.856;12.344;2023-03-12T08:48:09;6.00;99.90
16485;DHT22;8353;47.856;12.344;2023-03-12T08:50:39;5.80;99.90
16485;DHT22;8353;47.856;12.344;2023-03-12T09:06:01;5.70;99.90
16485;DHT22;8353;47.856;12.344;2023-03-12T09:08:33;5.70;99.90
16485;DHT22;8353;47.856;12.344;2023-03-12T09:11:04;5.60;99.90
16485;DHT22;8353;47.856;12.344;2023-03-12T09:13:35;5.60;99.90
16485;DHT22;8353;47.856;12.344;2023-03-12T09:16:07;5.60;99.90
16485;DHT22;8353;47.856;12.344;2023-03-12T09:18:37;5.90;99.90
16485;DHT22;8353;47.856;12.344;2023-03-12T09:21:09;6.00;99.90
16485;DHT22;8353;47.856;12.344;2023-03-12T09:23:40;6.00;99.90
16485;DHT22;8353;47.856;12.344;2023-03-12T09:26:11;6.10;99.90
16485;DHT22;8353;47.856;12.344;2023-03-12T09:28:41;6.20;99.90
16485;DHT22;8353;47.856;12.344;2023-03-12T09:31:27;6.30;99.90
16485;DHT22;8353;47.856;12.344;2023-03-12T09:33:54;6.10;99.90
16485;DHT22;8353;47.856;12.344;2023-03-12T09:36:22;6.10;99.90
16485;DHT22;8353;47.856;12.344;2023-03-12T09:38:54;6.00;99.90
16485;DHT22;8353;47.856;12.344;2023-03-12T09:41:27;5.90;99.90
16485;DHT22;8353;47.856;12.344;2023-03-12T09:44:02;6.00;99.90
16485;DHT22;8353;47.856;12.344;2023-03-12T09:46:37;6.20;99.90
16485;DHT22;8353;47.856;12.344;2023-03-12T09:49:15;6.10;99.90
16485;DHT22;8353;47.856;12.344;2023-03-12T09:51:51;6.30;99.90
16485;DHT22;8353;47.856;12.344;2023-03-12T09:54:28;6.40;99.90
16485;DHT22;8353;47.856;12.344;2023-03-12T09:57:04;6.50;99.90
16485;DHT22;8353;47.856;12.344;2023-03-12T09:59:38;6.70;99.90
16485;DHT22;8353;47.856;12.344;2023-03-12T10:02:27;6.80;99.90
16485;DHT22;8353;47.856;12.344;2023-03-12T10:05:05;6.90;99.90
16485;DHT22;8353;47.856;12.344;2023-03-12T10:07:43;6.80;99.90
16485;DHT22;8353;47.856;12.344;2023-03-12T10:10:35;6.80;99.90
16485;DHT22;8353;47.856;12.344;2023-03-12T10:13:23;6.80;99.90
16485;DHT22;8353;47.856;12.344;2023-03-12T10:16:08;6.80;99.90
16485;DHT22;8353;47.856;12.344;2023-03-12T10:18:57;7.00;99.90
16485;DHT22;8353;47.856;12.344;2023-03-12T10:21:37;7.10;99.90
16485;DHT22;8353;47.856;12.344;2023-03-12T10:24:21;7.00;99.90
16485;DHT22;8353;47.856;12.344;2023-03-12T10:26:58;7.00;99.90
16485;DHT22;8353;47.856;12.344;2023-03-12T10:29:31;7.10;99.90
16485;DHT22;8353;47.856;12.344;2023-03-12T10:32:05;7.20;99.90
16485;DHT22;8353;47.856;12.344;2023-03-12T10:34:39;7.40;99.90
16485;DHT22;8353;47.856;12.344;2023-03-12T10:37:16;7.50;99.90
16485;DHT22;8353;47.856;12.344;2023-03-12T10:39:48;7.30;99.90
16485;DHT22;8353;47.856;12.344;2023-03-12T10:42:20;7.30;99.90
16485;DHT22;8353;47.856;12.344;2023-03-12T10:44:55;7.20;99.90
16485;DHT22;8353;47.856;12.344;2023-03-12T10:47:32;7.00;99.90
16485;DHT22;8353;47.856;12.344;2023-03-12T10:50:13;6.70;99.90
16485;DHT22;8353;47.856;12.344;2023-03-12T10:52:45;6.70;99.90
16485;DHT22;8353;47.856;12.344;2023-03-12T10:55:25;6.70;99.90
16485;DHT22;8353;47.856;12.344;2023-03-12T10:57:57;6.90;99.90
16485;DHT22;8353;47.856;12.344;2023-03-12T11:00:30;7.10;99.90
16485;DHT22;8353;47.856;12.344;2023-03-12T11:03:03;7.20;99.90
16485;DHT22;8353;47.856;12.344;2023-03-12T11:05:35;7.20;99.90
16485;DHT22;8353;47.856;12.344;2023-03-12T11:08:20;7.30;99.90
16485;DHT22;8353;47.856;12.344;2023-03-12T11:10:53;7.40;99.90
16485;DHT22;8353;47.856;12.344;2023-03-12T11:13:30;7.50;99.90
16485;DHT22;8353;47.856;12.344;2023-03-12T11:16:09;7.60;99.90
16485;DHT22;8353;47.856;12.344;2023-03-12T11:18:54;7.70;99.90
16485;DHT22;8353;47.856;12.344;2023-03-12T11:21:26;7.70;99.90
16485;DHT22;8353;47.856;12.344;2023-03-12T11:24:09;7.80;99.90
16485;DHT22;8353;47.856;12.344;2023-03-12T11:26:49;7.90;99.90
16485;DHT22;8353;47.856;12.344;2023-03-12T11:29:26;8.00;99.90
16485;DHT22;8353;47.856;12.344;2023-03-12T11:32:05;7.90;99.90
16485;DHT22;8353;47.856;12.344;2023-03-12T11:34:40;7.90;99.90
16485;DHT22;8353;47.856;12.344;2023-03-12T11:37:14;7.90;99.90
16485;DHT22;8353;47.856;12.344;2023-03-12T11:39:55;7.80;99.90
16485;DHT22;8353;47.856;12.344;2023-03-12T11:42:36;7.80;99.90
16485;DHT22;8353;47.856;12.344;2023-03-12T11:45:17;7.80;99.90
16485;DHT22;8353;47.856;12.344;2023-03-12T11:48:09;7.80;99.90
16485;DHT22;8353;47.856;12.344;2023-03-12T11:50:56;7.80;99.90
16485;DHT22;8353;47.856;12.344;2023-03-12T11:53:48;7.90;99.90
16485;DHT22;8353;47.856;12.344;2023-03-12T11:56:26;7.90;99.90
16485;DHT22;8353;47.856;12.344;2023-03-12T12:02:02;8.00;99.90
16485;DHT22;8353;47.856;12.344;2023-03-12T12:05:00;8.00;99.90
16485;DHT22;8353;47.856;12.344;2023-03-12T12:07:44;8.10;99.90
16485;DHT22;8353;47.856;12.344;2023-03-12T12:10:23;8.30;99.90
16485;DHT22;8353;47.856;12.344;2023-03-12T12:13:05;8.30;99.90
16485;DHT22;8353;47.856;12.344;2023-03-12T12:15:44;8.30;99.90
16485;DHT22;8353;47.856;12.344;2023-03-12T12:18:33;8.30;99.90
16485;DHT22;8353;47.856;12.344;2023-03-12T12:21:21;8.30;99.90
16485;DHT22;8353;47.856;12.344;2023-03-12T12:24:00;8.30;99.90
16485;DHT22;8353;47.856;12.344;2023-03-12T12:26:37;8.20;99.90
16485;DHT22;8353;47.856;12.344;2023-03-12T12:29:20;8.20;99.90
16485;DHT22;8353;47.856;12.344;2023-03-12T12:31:55;8.20;99.90
16485;DHT22;8353;47.856;12.344;2023-03-12T12:34:40;8.30;99.90
16485;DHT22;8353;47.856;12.344;2023-03-12T12:37:21;8.30;99.90
16485;DHT22;8353;47.856;12.344;2023-03-12T12:40:02;8.40;99.90
16485;DHT22;8353;47.856;12.344;2023-03-12T12:42:46;8.30;99.90
16485;DHT22;8353;47.856;12.344;2023-03-12T12:45:19;8.20;99.90
16485;DHT22;8353;47.856;12.344;2023-03-12T12:47:56;8.40;99.90
16485;DHT22;8353;47.856;12.344;2023-03-12T12:50:31;8.50;99.90
16485;DHT22;8353;47.856;12.344;2023-03-12T12:53:12;8.60;99.90
16485;DHT22;8353;47.856;12.344;2023-03-12T12:55:50;8.60;99.90
16485;DHT22;8353;47.856;12.344;2023-03-12T12:58:24;8.60;99.90
16485;DHT22;8353;47.856;12.344;2023-03-12T13:00:58;8.60;99.90
16485;DHT22;8353;47.856;12.344;2023-03-12T13:03:35;8.50;99.90
16485;DHT22;8353;47.856;12.344;2023-03-12T13:06:07;8.40;99.90
16485;DHT22;8353;47.856;12.344;2023-03-12T13:08:59;8.40;99.90
16485;DHT22;8353;47.856;12.344;2023-03-12T13:11:38;8.20;99.90
16485;DHT22;8353;47.856;12.344;2023-03-12T13:14:21;8.20;99.90
16485;DHT22;8353;47.856;12.344;2023-03-12T13:17:29;8.20;99.90
16485;DHT22;8353;47.856;12.344;2023-03-12T13:20:12;8.20;99.90
16485;DHT22;8353;47.856;12.344;2023-03-12T13:22:57;8.20;99.90
16485;DHT22;8353;47.856;12.344;2023-03-12T13:25:46;8.30;99.90
16485;DHT22;8353;47.856;12.344;2023-03-12T13:28:36;8.40;99.90
16485;DHT22;8353;47.856;12.344;2023-03-12T13:31:35;8.50;99.90
16485;DHT22;8353;47.856;12.344;2023-03-12T13:34:29;8.50;99.90
16485;DHT22;8353;47.856;12.344;2023-03-12T13:37:02;8.50;99.90
16485;DHT22;8353;47.856;12.344;2023-03-12T13:39:34;8.60;99.90
16485;DHT22;8353;47.856;12.344;2023-03-12T13:45:26;8.70;99.90
16485;DHT22;8353;47.856;12.344;2023-03-12T13:48:01;8.60;99.90
16485;DHT22;8353;47.856;12.344;2023-03-12T13:50:32;8.70;99.90
16485;DHT22;8353;47.856;12.344;2023-03-12T13:53:06;8.70;99.90
16485;DHT22;8353;47.856;12.344;2023-03-12T13:55:37;8.70;99.90
16485;DHT22;8353;47.856;12.344;2023-03-12T13:58:13;8.90;99.90
16485;DHT22;8353;47.856;12.344;2023-03-12T14:00:50;8.90;99.90
16485;DHT22;8353;47.856;12.344;2023-03-12T14:03:26;9.00;99.90
16485;DHT22;8353;47.856;12.344;2023-03-12T14:05:59;9.00;99.90
16485;DHT22;8353;47.856;12.344;2023-03-12T14:08:58;9.10;99.90
16485;DHT22;8353;47.856;12.344;2023-03-12T14:11:40;9.10;99.90
16485;DHT22;8353;47.856;12.344;2023-03-12T14:14:51;9.20;99.90
16485;DHT22;8353;47.856;12.344;2023-03-12T14:17:28;9.10;99.90
16485;DHT22;8353;47.856;12.344;2023-03-12T14:20:03;9.10;99.90
16485;DHT22;8353;47.856;12.344;2023-03-12T14:22:37;9.20;99.90
16485;DHT22;8353;47.856;12.344;2023-03-12T14:25:15;9.20;99.90
16485;DHT22;8353;47.856;12.344;2023-03-12T14:27:47;9.30;99.90
16485;DHT22;8353;47.856;12.344;2023-03-12T14:30:21;9.40;99.90
16485;DHT22;8353;47.856;12.344;2023-03-12T14:32:54;9.30;99.90
16485;DHT22;8353;47.856;12.344;2023-03-12T14:35:29;9.20;99.90
16485;DHT22;8353;47.856;12.344;2023-03-12T14:38:04;9.30;99.90
16485;DHT22;8353;47.856;12.344;2023-03-12T14:40:41;9.40;99.90
16485;DHT22;8353;47.856;12.344;2023-03-12T14:43:21;9.40;99.90
16485;DHT22;8353;47.856;12.344;2023-03-12T14:45:56;9.40;99.90
16485;DHT22;8353;47.856;12.344;2023-03-12T14:48:29;9.40;99.90
16485;DHT22;8353;47.856;12.344;2023-03-12T14:51:01;9.40;99.90
16485;DHT22;8353;47.856;12.344;2023-03-12T14:53:33;9.50;99.90
16485;DHT22;8353;47.856;12.344;2023-03-12T14:56:09;9.60;99.90
16485;DHT22;8353;47.856;12.344;2023-03-12T14:58:43;9.60;99.90
16485;DHT22;8353;47.856;12.344;2023-03-12T15:01:17;9.70;99.90
16485;DHT22;8353;47.856;12.344;2023-03-12T15:03:51;9.80;99.90
16485;DHT22;8353;47.856;12.344;2023-03-12T15:06:27;9.80;99.90
16485;DHT22;8353;47.856;12.344;2023-03-12T15:09:00;9.80;99.90
16485;DHT22;8353;47.856;12.344;2023-03-12T15:11:34;9.90;99.90
16485;DHT22;8353;47.856;12.344;2023-03-12T15:14:07;9.80;99.90
16485;DHT22;8353;47.856;12.344;2023-03-12T15:16:38;9.80;99.90
16485;DHT22;8353;47.856;12.344;2023-03-12T15:19:10;9.80;99.90
16485;DHT22;8353;47.856;12.344;2023-03-12T15:21:41;9.80;99.90
16485;DHT22;8353;47.856;12.344;2023-03-12T15:24:13;9.80;99.90
16485;DHT22;8353;47.856;12.344;2023-03-12T15:26:45;9.80;99.90
16485;DHT22;8353;47.856;12.344;2023-03-12T15:29:24;9.80;99.90
16485;DHT22;8353;47.856;12.344;2023-03-12T15:31:57;9.80;99.90
16485;DHT22;8353;47.856;12.344;2023-03-12T15:34:30;9.80;99.90
16485;DHT22;8353;47.856;12.344;2023-03-12T15:37:03;9.90;99.90
16485;DHT22;8353;47.856;12.344;2023-03-12T15:39:49;10.00;99.90
16485;DHT22;8353;47.856;12.344;2023-03-12T15:42:24;10.10;99.90
16485;DHT22;8353;47.856;12.344;2023-03-12T15:44:56;10.20;99.90
16485;DHT22;8353;47.856;12.344;2023-03-12T15:47:29;10.30;99.90
16485;DHT22;8353;47.856;12.344;2023-03-12T15:50:11;10.30;99.90
16485;DHT22;8353;47.856;12.344;2023-03-12T15:52:57;10.20;99.90
16485;DHT22;8353;47.856;12.344;2023-03-12T15:55:29;10.20;99.90
16485;DHT22;8353;47.856;12.344;2023-03-12T15:58:02;10.10;99.90
16485;DHT22;8353;47.856;12.344;2023-03-12T16:00:52;10.20;99.90
16485;DHT22;8353;47.856;12.344;2023-03-12T16:03:22;10.20;99.90
16485;DHT22;8353;47.856;12.344;2023-03-12T16:05:55;10.20;99.90
16485;DHT22;8353;47.856;12.344;2023-03-12T16:08:37;10.20;99.90
16485;DHT22;8353;47.856;12.344;2023-03-12T16:11:13;10.20;99.90
16485;DHT22;8353;47.856;12.344;2023-03-12T16:13:47;10.20;99.90
16485;DHT22;8353;47.856;12.344;2023-03-12T16:16:18;10.30;99.90
16485;DHT22;8353;47.856;12.344;2023-03-12T16:18:49;10.30;99.90
16485;DHT22;8353;47.856;12.344;2023-03-12T16:21:19;10.20;99.90
16485;DHT22;8353;47.856;12.344;2023-03-12T16:23:49;10.20;99.90
16485;DHT22;8353;47.856;12.344;2023-03-12T16:26:21;10.20;99.90
16485;DHT22;8353;47.856;12.344;2023-03-12T16:28:52;10.20;99.90
16485;DHT22;8353;47.856;12.344;2023-03-12T16:31:22;10.20;99.90
16485;DHT22;8353;47.856;12.344;2023-03-12T16:33:53;10.20;99.90
16485;DHT22;8353;47.856;12.344;2023-03-12T16:36:25;10.20;99.90
16485;DHT22;8353;47.856;12.344;2023-03-12T16:38:56;10.20;99.90
16485;DHT22;8353;47.856;12.344;2023-03-12T16:41:27;10.20;99.90
16485;DHT22;8353;47.856;12.344;2023-03-12T16:44:00;10.20;99.90
16485;DHT22;8353;47.856;12.344;2023-03-12T16:46:31;10.20;99.90
16485;DHT22;8353;47.856;12.344;2023-03-12T16:49:01;10.20;99.90